»·PEaware :: N630HR KSNA-KSDM

N630HR :: KSNA-KSDM

FLIGHT INFORMATION

Flight Status: Arrived
Operator: Privately registered:
United States
More flights under this callsign
Pilot: Drew Leevy (13237)
Aircraft: PIPER PA-28 CHEROKEE ARCHER
(PA28)
More flights by this aircraft type
Origin: KSNA John Wayne-Orange Co
United States
Destination: KSDM Brown Mun
United States
More flights between these airports :: More routes between these airports
Route: +
File this flight plan on PilotEdge
Remarks:
Altitude:
(Current/Filed)
2,400ft
Speed:
(Current/Filed)
0kts
Departed: 08-Aug-17 10:04 PM
Arrived: 08-Aug-17 10:45 PM
Distance/Time
Traveled:
80nm/0:41
Distance/Time
To Go:
Arrived

Flight Plot

Page will automatically refresh every two minutes.

Flight plan parsing failed; only flown route is shown


Map Options




Map Legend


Flown Route
Filed Route
Departure Airport
Arrival Airport
Navaid (VOR, NDB)
Fix

Horizontal Profiles

Position Reports

Time Latitude Longitude Heading Altitude Ground
Speed
08-Aug-17 22:06 33.495614 -117.241596 114 4494ft 117kts
08-Aug-17 22:07 33.483198 -117.206081 114 4494ft 117kts
08-Aug-17 22:08 33.467627 -117.173038 126 4493ft 116kts
08-Aug-17 22:09 33.448757 -117.142334 126 4502ft 117kts
08-Aug-17 22:10 33.429547 -117.111509 126 4501ft 117kts
08-Aug-17 22:11 33.410408 -117.080928 126 4506ft 117kts
08-Aug-17 22:12 33.391090 -117.050249 126 4511ft 117kts
08-Aug-17 22:13 33.371805 -117.019773 126 4516ft 117kts
08-Aug-17 22:14 33.352339 -116.989110 127 4520ft 117kts
08-Aug-17 22:15 33.333008 -116.957292 126 4527ft 121kts
08-Aug-17 22:16 33.313461 -116.925716 126 4531ft 119kts
08-Aug-17 22:17 33.293615 -116.894625 126 4534ft 119kts
08-Aug-17 22:18 33.273944 -116.863793 126 4536ft 118kts
08-Aug-17 22:19 33.255790 -116.831657 129 4535ft 119kts
08-Aug-17 22:20 33.224990 -116.818574 163 4537ft 120kts
08-Aug-17 22:21 33.193462 -116.807867 163 4536ft 120kts
08-Aug-17 22:22 33.161709 -116.797083 163 4536ft 120kts
08-Aug-17 22:23 33.129928 -116.786693 164 4536ft 120kts
08-Aug-17 22:24 33.098147 -116.776599 164 4536ft 120kts
08-Aug-17 22:25 33.066346 -116.766482 164 4536ft 120kts
08-Aug-17 22:26 33.034486 -116.756327 164 4536ft 120kts
08-Aug-17 22:27 33.002626 -116.746152 164 4536ft 120kts
08-Aug-17 22:28 32.970834 -116.735981 164 4536ft 120kts
08-Aug-17 22:29 32.943670 -116.730781 171 4535ft 121kts
08-Aug-17 22:30 32.905177 -116.724694 172 4532ft 121kts
08-Aug-17 22:31 32.873897 -116.718276 172 4527ft 120kts
08-Aug-17 22:32 32.841566 -116.711266 172 4524ft 120kts
08-Aug-17 22:33 32.814761 -116.705198 171 4521ft 119kts
08-Aug-17 22:34 32.782891 -116.697774 171 4520ft 118kts
08-Aug-17 22:35 32.745881 -116.689227 171 4525ft 117kts
08-Aug-17 22:36 32.714465 -116.684943 209 4530ft 114kts
08-Aug-17 22:37 32.693106 -116.702508 216 4532ft 114kts
08-Aug-17 22:38 32.667756 -116.724178 216 4533ft 114kts
08-Aug-17 22:39 32.642375 -116.745957 216 4533ft 114kts
08-Aug-17 22:40 32.623517 -116.774584 250 4533ft 114kts
08-Aug-17 22:41 32.610443 -116.807420 225 4530ft 114kts
08-Aug-17 22:42 32.589122 -116.834038 236 4101ft 109kts
08-Aug-17 22:43 32.570069 -116.860455 232 3273ft 104kts
08-Aug-17 22:44 32.565855 -116.891223 271 2289ft 98kts
08-Aug-17 22:45 32.567702 -116.918982 275 1743ft 80kts
08-Aug-17 22:46 32.569639 -116.942038 275 1192ft 61kts
08-Aug-17 22:47 32.571226 -116.962327 274 744ft 68kts
08-Aug-17 22:48 32.572949 -116.983621 271 530ft 32kts
08-Aug-17 22:49 32.570693 -116.984655 237 530ft 13kts
08-Aug-17 22:50 32.570225 -116.984510 47 530ft 4kts
08-Aug-17 22:51 32.571146 -116.986658 272 530ft 11kts
08-Aug-17 22:52 32.571416 -116.990331 270 530ft 11kts
08-Aug-17 22:53 32.571313 -116.992498 254 530ft 6kts
08-Aug-17 22:54 32.571427 -116.993210 14 530ft 0kts
08-Aug-17 22:55 32.571427 -116.993210 14 530ft 0kts
08-Aug-17 22:56 32.571427 -116.993210 14 530ft 0kts
08-Aug-17 22:57 32.571427 -116.993210 14 530ft 0kts
08-Aug-17 22:58 32.571427 -116.993210 14 530ft 0kts
08-Aug-17 22:59 32.571427 -116.993210 14 530ft 0kts

Navigation Log

Ident Type
Flight plan parsing failed, navigation log unavailable